Asheville Regional Airport
KAVL : now visible

Airfield :











YOU CAN JOIN US ON...

 
LOGIN :

Register | Disclaimer

   EN    FR    IT 

 









Legend :    VFR   Marginal VFR   IFR   Intensive IFR   Very Intensive IFR
Visi :
Ceiling :
>= 8 km
>= 3000ft
5 to 8 km
1000 to 3000 ft
1500m to 5 km
500 to 1000 ft
800 to 1500m
200 to 500 ft
< 800m
< 200 ft
Symbols :   Thunderstorms  Fog  Heavy snow  Heavy precipitations  Wind > 20 kt






- Airport Elevation : 2165 ft
- IATA code : AVL


KAVL - Asheville Regional

CURRENT METAR :
  • 062354Z 33007KT 10SM BKN100 22/06 A3005 RMK AO2 SLP162 T02170061 10256 20217 53002

EXPIRED METARs :
  • 062254Z 36003KT 10SM BKN090 OVC110 24/05 A3004 RMK AO2 SLP157 T02390050
  • 062154Z 34008KT 10SM CLR 24/05 A3003 RMK AO2 SLP154 T02390050

TAF KAVL
Valid from the 07 at 00:00 until the 08 at 00:00 UTC


062334Z 0700/0724 34004KT P6SM SCT080 BKN250
FM071500 34009G17KT P6SM BKN070
PROB30 0718/0723 4SM TSRA BR OVC040CB
FM072300 30010KT P6SM SCT060 BKN200



MET'MAP, your aeronautical weather chart ! - Copyright ORBIFLY December 2007 - Disclaimer

ORBIFLY MET'MAP TEAM :

Programming & Development : Alexandra Zaïnal
Concept & original design : Baudouin d'Aumeries
Assistance for programming : Marc-Olivier Méhu
Technical & hardware support : Manuel Goepfert

Contact : metmap@orbifly.com




SOURCES & CREDITS :

   NOAA       Earth
Advisory